createdAt,value
2022-10-23T00:00:38.928Z,101126.81
2022-10-23T00:04:51.625Z,101114.63
2022-10-23T00:09:06.404Z,101091.03
2022-10-23T00:13:17.899Z,101094.19
2022-10-23T00:17:32.593Z,101086.22
2022-10-23T00:21:44.239Z,101077.84
2022-10-23T00:25:55.747Z,101100.16
2022-10-23T00:30:07.674Z,101098.97
2022-10-23T00:34:19.846Z,101093.22
2022-10-23T00:38:31.513Z,101105.56
2022-10-23T00:42:43.299Z,101098.75
2022-10-23T00:46:55.735Z,101102.41
2022-10-23T00:51:07.338Z,101093.47
2022-10-23T00:55:21.263Z,101088.31
2022-10-23T00:59:33.600Z,101078.81
2022-10-23T01:03:45.884Z,101084.19
2022-10-23T01:08:07.811Z,101086.06
2022-10-23T01:12:37.857Z,101076.69
2022-10-23T01:17:27.529Z,101083.16
2022-10-23T01:22:04.050Z,101088.09
2022-10-23T01:26:37.390Z,101083.63
2022-10-23T01:30:49.587Z,101078.81
2022-10-23T01:35:11.550Z,101069.88
2022-10-23T01:39:36.033Z,101067.66
2022-10-23T01:44:01.157Z,101074.59
2022-10-23T01:48:22.012Z,101067.56
2022-10-23T01:52:34.207Z,101041.50
2022-10-23T01:56:50.665Z,101055.34
2022-10-23T02:01:07.650Z,101052.41
2022-10-23T02:05:31.689Z,101038.34
2022-10-23T02:09:43.869Z,101041.63
2022-10-23T02:14:18.509Z,101034.81
2022-10-23T02:18:36.481Z,101020.97
2022-10-23T02:23:11.008Z,101019.09
2022-10-23T02:27:35.168Z,101008.16
2022-10-23T02:31:46.797Z,100995.84
2022-10-23T02:35:58.369Z,101002.63
2022-10-23T02:40:11.193Z,101014.13
2022-10-23T02:45:04.196Z,101007.53
2022-10-23T02:49:24.464Z,101016.44
2022-10-23T02:54:15.584Z,101008.00
2022-10-23T02:58:34.475Z,101009.41
2022-10-23T03:03:06.725Z,101004.03
2022-10-23T03:07:19.748Z,100985.38
2022-10-23T03:11:31.347Z,100968.84
2022-10-23T03:15:43.891Z,100971.44
2022-10-23T03:19:58.548Z,100970.84
2022-10-23T03:24:10.231Z,100955.34
2022-10-23T03:28:27.673Z,100961.56
2022-10-23T03:32:39.453Z,100948.09
2022-10-23T03:36:51.145Z,100947.50
2022-10-23T03:41:05.006Z,100952.53
2022-10-23T03:45:17.109Z,100945.63
2022-10-23T03:49:28.713Z,100940.47
2022-10-23T03:53:46.418Z,100939.78
2022-10-23T03:57:58.086Z,100933.31
2022-10-23T04:02:10.467Z,100921.34
2022-10-23T04:06:22.079Z,100915.16
2022-10-23T04:10:34.174Z,100913.88
2022-10-23T04:14:45.799Z,100905.53
2022-10-23T04:18:57.619Z,100886.06
2022-10-23T04:23:09.242Z,100897.59
2022-10-23T04:27:20.877Z,100885.38
2022-10-23T04:31:32.886Z,100887.84
2022-10-23T04:35:44.583Z,100885.16
2022-10-23T04:39:56.476Z,100889.84
2022-10-23T04:44:08.285Z,100882.00
2022-10-23T04:48:25.580Z,100880.81
2022-10-23T04:53:03.071Z,100876.25
2022-10-23T04:57:33.678Z,100880.66
2022-10-23T05:01:54.253Z,100875.28
2022-10-23T05:06:09.321Z,100865.91
2022-10-23T05:10:56.430Z,100879.03
2022-10-23T05:15:08.354Z,100868.03
2022-10-23T05:19:27.868Z,100846.69
2022-10-23T05:23:42.011Z,100854.91
2022-10-23T05:27:53.871Z,100848.69
2022-10-23T05:32:10.198Z,100844.31
2022-10-23T05:36:24.926Z,100850.34
2022-10-23T05:40:41.124Z,100849.38
2022-10-23T05:44:58.489Z,100840.00
2022-10-23T05:49:45.363Z,100856.72
2022-10-23T05:54:09.391Z,100857.66
2022-10-23T05:58:26.277Z,100855.06
2022-10-23T06:02:46.981Z,100839.44
2022-10-23T06:07:13.355Z,100841.34
2022-10-23T06:11:28.413Z,100828.41
2022-10-23T06:15:44.699Z,100826.28
2022-10-23T06:20:02.603Z,100835.78
2022-10-23T06:24:18.605Z,100822.88
2022-10-23T06:28:35.234Z,100821.56
2022-10-23T06:32:46.886Z,100812.31
2022-10-23T06:36:59.891Z,100802.09
2022-10-23T06:41:20.047Z,100800.69
2022-10-23T06:45:37.320Z,100793.28
2022-10-23T06:49:58.067Z,100792.47
2022-10-23T06:54:10.810Z,100808.59
2022-10-23T06:58:36.081Z,100794.03
2022-10-23T07:02:56.161Z,100789.53
2022-10-23T07:07:07.809Z,100788.50
2022-10-23T07:11:28.313Z,100779.63
2022-10-23T07:15:41.886Z,100780.22
2022-10-23T07:19:59.068Z,100781.59
2022-10-23T07:24:10.662Z,100769.50
2022-10-23T07:28:24.709Z,100769.34
2022-10-23T07:32:37.101Z,100775.16
2022-10-23T07:37:07.637Z,100770.91
2022-10-23T07:41:20.167Z,100774.00
2022-10-23T07:45:31.836Z,100772.69
2022-10-23T07:49:49.490Z,100773.34
2022-10-23T07:54:01.318Z,100757.22
2022-10-23T07:58:32.830Z,100755.44
2022-10-23T08:02:51.107Z,100759.84
2022-10-23T08:07:02.795Z,100755.00
2022-10-23T08:11:27.129Z,100748.03
2022-10-23T08:15:41.354Z,100751.88
2022-10-23T08:20:06.998Z,100751.38
2022-10-23T08:24:24.529Z,100744.34
2022-10-23T08:28:37.006Z,100747.94
2022-10-23T08:32:49.089Z,100742.59
2022-10-23T08:37:00.663Z,100729.69
2022-10-23T08:41:39.383Z,100727.91
2022-10-23T08:46:04.194Z,100720.19
2022-10-23T08:50:42.792Z,100714.38
2022-10-23T08:55:23.402Z,100706.66
2022-10-23T08:59:48.192Z,100705.41
2022-10-23T09:04:00.546Z,100709.28
2022-10-23T09:08:36.909Z,100698.56
2022-10-23T09:12:49.175Z,100704.16
2022-10-23T09:17:03.717Z,100681.22
2022-10-23T09:21:15.930Z,100676.06
2022-10-23T09:25:31.154Z,100682.84
2022-10-23T09:29:52.782Z,100675.25
2022-10-23T09:34:06.433Z,100677.44
2022-10-23T09:38:28.639Z,100673.59
2022-10-23T09:42:51.564Z,100658.47
2022-10-23T09:47:06.065Z,100661.50
2022-10-23T09:51:51.381Z,100659.34
2022-10-23T09:56:07.938Z,100646.91
2022-10-23T10:00:26.060Z,100638.53
2022-10-23T10:04:40.622Z,100637.25
2022-10-23T10:08:56.493Z,100641.06
2022-10-23T10:13:34.259Z,100625.13
2022-10-23T10:17:54.885Z,100630.31
2022-10-23T10:22:27.848Z,100615.19
2022-10-23T10:27:03.587Z,100597.06
2022-10-23T10:31:41.433Z,100604.47
2022-10-23T10:36:03.396Z,100586.84
2022-10-23T10:40:33.154Z,100591.75
2022-10-23T10:44:50.834Z,100573.03
2022-10-23T10:49:31.668Z,100564.09
2022-10-23T10:54:29.476Z,100542.66
2022-10-23T10:58:51.570Z,100538.84
2022-10-23T11:03:21.309Z,100533.47
2022-10-23T11:07:38.126Z,100516.63
2022-10-23T11:11:49.877Z,100512.00
2022-10-23T11:16:10.114Z,100515.28
2022-10-23T11:20:38.879Z,100511.19
2022-10-23T11:25:23.262Z,100507.13
2022-10-23T11:30:02.868Z,100487.00
2022-10-23T11:34:42.062Z,100495.41
2022-10-23T11:38:59.043Z,100481.56
2022-10-23T11:43:10.569Z,100466.03
2022-10-23T11:47:40.756Z,100451.03
2022-10-23T11:52:05.863Z,100446.66
2022-10-23T11:56:19.436Z,100455.84
2022-10-23T12:00:38.676Z,100444.97
2022-10-23T12:04:53.156Z,100431.88
2022-10-23T12:09:09.111Z,100433.41
2022-10-23T12:13:49.673Z,100437.69
2022-10-23T12:18:27.718Z,100431.56
2022-10-23T12:23:00.416Z,100416.19
2022-10-23T12:27:19.953Z,100418.75
2022-10-23T12:31:59.554Z,100405.59
2022-10-23T12:36:41.771Z,100388.69
2022-10-23T12:41:18.117Z,100393.03
2022-10-23T12:45:38.598Z,100395.00
2022-10-23T12:49:50.976Z,100398.53
2022-10-23T12:54:04.963Z,100386.53
2022-10-23T12:58:26.731Z,100378.06
2022-10-23T13:02:41.602Z,100359.00
2022-10-23T13:06:55.793Z,100346.75
2022-10-23T13:11:14.395Z,100359.78
2022-10-23T13:15:40.985Z,100349.19
2022-10-23T13:19:52.461Z,100332.31
2022-10-23T13:24:04.223Z,100336.63
2022-10-23T13:28:25.309Z,100321.94
2022-10-23T13:32:36.841Z,100310.53
2022-10-23T13:37:25.113Z,100301.22
2022-10-23T13:41:41.475Z,100289.22
2022-10-23T13:45:52.991Z,100269.41
2022-10-23T13:50:07.613Z,100269.94
2022-10-23T13:54:29.368Z,100268.78
2022-10-23T13:58:42.020Z,100267.97
2022-10-23T14:07:09.957Z,100240.44
2022-10-23T14:11:22.176Z,100244.25
2022-10-23T14:15:33.661Z,100256.97
2022-10-23T14:19:45.707Z,100244.97
2022-10-23T14:23:57.368Z,100237.44
2022-10-23T14:28:08.913Z,100232.28
2022-10-23T14:32:20.439Z,100230.34
2022-10-23T14:36:38.882Z,100233.66
2022-10-23T14:41:02.164Z,100216.81
2022-10-23T14:45:13.699Z,100214.44
2022-10-23T14:49:25.318Z,100218.47
2022-10-23T14:53:36.928Z,100206.13
2022-10-23T14:57:48.757Z,100225.09
2022-10-23T15:02:00.395Z,100204.84
2022-10-23T15:06:16.055Z,100217.34
2022-10-23T15:10:29.926Z,100215.00
2022-10-23T15:14:41.459Z,100209.94
2022-10-23T15:18:53.085Z,100198.34
2022-10-23T15:23:04.774Z,100185.88
2022-10-23T15:27:16.384Z,100181.81
2022-10-23T15:31:43.121Z,100187.78
2022-10-23T15:35:55.955Z,100174.78
2022-10-23T15:40:08.097Z,100176.94
2022-10-23T15:44:21.909Z,100174.06
2022-10-23T15:48:33.499Z,100172.75
2022-10-23T15:52:45.459Z,100176.94
2022-10-23T15:56:57.664Z,100165.06
2022-10-23T16:01:09.514Z,100174.59
2022-10-23T16:05:21.261Z,100150.81
2022-10-23T16:09:32.855Z,100151.91
2022-10-23T16:13:44.876Z,100142.72
2022-10-23T16:17:56.502Z,100121.31
2022-10-23T16:22:08.379Z,100119.97
2022-10-23T16:26:21.027Z,100102.59
2022-10-23T16:30:32.622Z,100063.81
2022-10-23T16:34:44.505Z,100077.41
2022-10-23T16:38:56.454Z,100078.22
2022-10-23T16:43:28.433Z,100082.56
2022-10-23T16:47:53.538Z,100081.22
2022-10-23T16:52:05.161Z,100093.25
2022-10-23T16:56:19.334Z,100109.88
2022-10-23T17:00:35.014Z,100105.13
2022-10-23T17:04:46.822Z,100128.69
2022-10-23T17:09:00.560Z,100134.38
2022-10-23T17:13:12.167Z,100137.81
2022-10-23T17:17:23.748Z,100118.50
2022-10-23T17:21:38.264Z,100108.16
2022-10-23T17:25:49.837Z,100105.50
2022-10-23T17:30:01.608Z,100112.59
2022-10-23T17:34:17.237Z,100122.94
2022-10-23T17:38:28.913Z,100141.91
2022-10-23T17:42:40.579Z,100115.34
2022-10-23T17:46:53.788Z,100124.84
2022-10-23T17:51:07.704Z,100111.31
2022-10-23T17:55:19.220Z,100124.63
2022-10-23T17:59:30.858Z,100099.84
2022-10-23T18:03:42.448Z,100102.31
2022-10-23T18:07:54.045Z,100124.50
2022-10-23T18:12:05.671Z,100115.03
2022-10-23T18:16:17.607Z,100116.38
2022-10-23T18:20:29.168Z,100095.16
2022-10-23T18:24:40.705Z,100087.00
2022-10-23T18:28:56.842Z,100100.06
2022-10-23T18:33:08.492Z,100096.53
2022-10-23T18:37:20.041Z,100084.69
2022-10-23T18:41:36.800Z,100087.94
2022-10-23T18:45:48.306Z,100091.78
2022-10-23T18:49:59.866Z,100084.19
2022-10-23T18:54:13.869Z,100080.16
2022-10-23T18:58:25.382Z,100073.41
2022-10-23T19:02:38.002Z,100058.25
2022-10-23T19:06:50.628Z,100072.34
2022-10-23T19:11:02.848Z,100059.88
2022-10-23T19:15:14.901Z,100048.66
2022-10-23T19:19:31.532Z,100044.81
2022-10-23T19:23:43.520Z,100048.56
2022-10-23T19:27:56.815Z,100060.53
2022-10-23T19:32:08.668Z,100088.19
2022-10-23T19:36:23.538Z,100105.53
2022-10-23T19:40:35.201Z,100115.28
2022-10-23T19:44:46.681Z,100047.09
2022-10-23T19:48:58.189Z,100052.91
2022-10-23T19:53:09.859Z,100060.41
2022-10-23T19:57:22.635Z,100076.47
2022-10-23T20:01:34.534Z,100071.03
2022-10-23T20:05:46.977Z,100069.69
2022-10-23T20:09:58.703Z,100074.84
2022-10-23T20:14:10.242Z,100080.34
2022-10-23T20:18:21.705Z,100102.28
2022-10-23T20:22:33.225Z,100095.75
2022-10-23T20:26:48.125Z,100101.25
2022-10-23T20:30:59.700Z,100099.38
2022-10-23T20:35:11.168Z,100115.16
2022-10-23T20:39:29.515Z,100110.81
2022-10-23T20:43:40.997Z,100111.06
2022-10-23T20:47:52.461Z,100118.97
2022-10-23T20:52:04.143Z,100125.47
2022-10-23T20:56:23.123Z,100133.81
2022-10-23T21:00:34.666Z,100131.94
2022-10-23T21:04:47.596Z,100150.69
2022-10-23T21:09:01.877Z,100126.38
2022-10-23T21:13:13.871Z,100152.41
2022-10-23T21:17:25.539Z,100142.66
2022-10-23T21:21:37.157Z,100147.00
2022-10-23T21:25:48.818Z,100152.69
2022-10-23T21:30:00.340Z,100149.16
2022-10-23T21:34:12.138Z,100151.91
2022-10-23T21:38:24.131Z,100140.84
2022-10-23T21:42:35.709Z,100140.06
2022-10-23T21:46:47.334Z,100156.31
2022-10-23T21:51:00.180Z,100139.50
2022-10-23T21:55:11.931Z,100144.94
2022-10-23T21:59:27.888Z,100139.22
2022-10-23T22:03:41.778Z,100156.03
2022-10-23T22:07:53.354Z,100164.81
2022-10-23T22:12:05.117Z,100183.56
2022-10-23T22:16:16.991Z,100211.25
2022-10-23T22:20:28.543Z,100200.69
2022-10-23T22:24:40.074Z,100188.78
2022-10-23T22:28:54.456Z,100194.22
2022-10-23T22:33:06.013Z,100183.91
2022-10-23T22:37:17.569Z,100195.31
2022-10-23T22:41:29.211Z,100194.22
2022-10-23T22:45:40.761Z,100159.81
2022-10-23T22:49:52.332Z,100148.41
2022-10-23T22:54:03.937Z,100165.25
2022-10-23T22:58:15.482Z,100142.75
2022-10-23T23:02:27.512Z,100149.00
2022-10-23T23:06:39.318Z,100137.06
2022-10-23T23:10:55.420Z,100143.03
2022-10-23T23:15:07.482Z,100141.94
2022-10-23T23:19:19.527Z,100119.19
2022-10-23T23:23:31.900Z,100131.38
2022-10-23T23:27:44.136Z,100123.00
2022-10-23T23:31:55.800Z,100104.31
2022-10-23T23:36:09.418Z,100096.75
2022-10-23T23:40:21.011Z,100100.03
2022-10-23T23:44:32.651Z,100103.00
2022-10-23T23:48:47.900Z,100098.09
2022-10-23T23:52:59.508Z,100091.06
2022-10-23T23:57:12.058Z,100088.09
